Time;durP1;ratioP1;P1;durP2;ratioP2;P2;SDS_P1;SDS_P2;PMS_P1;PMS_P2;Temp;Humidity;BMP_temperature;BMP_pressure;BME280_temperature;BME280_humidity;BME280_pressure;Samples;Min_cycle;Max_cycle;Signal;HPM_P1;HPM_P2
2022/09/02 00:01:38;;;;;;;;;5.75;5.75;;;;;22.63;40.14;100448.06;5067445;28;45439;-74
2022/09/02 00:04:25;;;;;;;;;1.75;1.00;;;;;22.64;39.98;100447.09;5074106;28;45468;-73
2022/09/02 00:06:52;;;;;;;;;1.50;1.25;;;;;22.63;40.20;100441.81;5074155;27;45446;-74
2022/09/02 00:09:20;;;;;;;;;1.75;1.75;;;;;22.64;40.37;100446.25;5073801;28;45402;-74
2022/09/02 00:11:48;;;;;;;;;6.25;6.25;;;;;22.61;40.46;100431.16;5074225;27;45476;-74
2022/09/02 00:14:19;;;;;;;;;7.00;7.00;;;;;22.60;40.52;100436.66;5073821;28;45453;-76
2022/09/02 00:16:49;;;;;;;;;5.00;3.00;;;;;22.57;40.41;100434.19;5073897;27;45555;-74
2022/09/02 00:19:15;;;;;;;;;7.75;6.75;;;;;22.58;40.80;100433.22;5074461;27;46629;-74
2022/09/02 00:21:40;;;;;;;;;7.25;6.25;;;;;22.58;40.56;100419.75;5074517;28;45445;-74
2022/09/02 00:24:06;;;;;;;;;8.00;7.00;;;;;22.58;40.54;100423.31;5073779;28;45353;-73
2022/09/02 00:26:32;;;;;;;;;3.00;3.00;;;;;22.59;40.97;100418.78;5074337;28;45489;-73
2022/09/02 00:28:57;;;;;;;;;2.00;1.00;;;;;22.60;40.81;100409.75;5068357;28;46089;-73
2022/09/02 00:31:24;;;;;;;;;5.50;5.50;;;;;22.56;40.81;100410.94;5070633;28;45596;-74
2022/09/02 00:33:50;;;;;;;;;4.00;4.00;;;;;22.54;41.21;100403.81;5075010;28;45599;-73
2022/09/02 00:36:16;;;;;;;;;6.00;6.00;;;;;22.57;40.93;100412.66;5073806;28;45444;-74
2022/09/02 00:38:41;;;;;;;;;7.00;7.00;;;;;22.54;41.25;100403.81;5069836;28;46298;-74
2022/09/02 00:41:09;;;;;;;;;4.25;4.00;;;;;22.51;41.21;100393.25;5073810;27;45504;-75
2022/09/02 00:43:52;;;;;;;;;6.00;3.50;;;;;22.50;41.01;100407.72;5074315;28;45525;-74
2022/09/02 00:46:21;;;;;;;;;4.00;4.00;;;;;22.48;41.32;100409.66;5074603;28;45535;-74
2022/09/02 00:48:52;;;;;;;;;3.50;3.00;;;;;22.44;41.41;100402.78;5072278;28;45544;-74
2022/09/02 00:51:18;;;;;;;;;3.50;2.50;;;;;22.43;41.42;100406.44;5074112;28;45565;-74
2022/09/02 00:53:46;;;;;;;;;3.00;3.00;;;;;22.39;41.99;100399.53;5073018;28;45585;-74
2022/09/02 00:56:21;;;;;;;;;6.75;6.50;;;;;22.35;42.01;100403.44;5073438;28;45525;-74
2022/09/02 00:58:50;;;;;;;;;9.00;6.25;;;;;22.32;42.26;100409.06;5070994;28;46092;-74
2022/09/02 01:01:16;;;;;;;;;6.00;6.00;;;;;22.31;42.09;100408.19;5073746;27;45485;-75
2022/09/02 01:03:42;;;;;;;;;1.25;1.00;;;;;22.26;42.19;100399.56;5074398;28;45468;-74
2022/09/02 01:06:14;;;;;;;;;6.00;6.00;;;;;22.26;42.40;100404.06;5074301;28;45478;-74
2022/09/02 01:08:44;;;;;;;;;6.75;6.00;;;;;22.23;42.48;100398.88;5070629;28;45527;-74
2022/09/02 01:11:10;;;;;;;;;3.50;3.50;;;;;22.21;42.52;100400.84;5073646;28;45503;-74
2022/09/02 01:13:41;;;;;;;;;9.50;9.50;;;;;22.19;42.55;100396.41;5074096;28;45411;-74
2022/09/02 01:16:15;;;;;;;;;6.75;6.00;;;;;22.19;42.56;100399.09;5089152;27;45383;-74
2022/09/02 01:18:46;;;;;;;;;9.25;7.75;;;;;22.17;42.81;100394.84;5071292;28;45402;-75
2022/09/02 01:21:12;;;;;;;;;4.50;4.50;;;;;22.14;43.11;100398.59;5073012;27;45564;-74
2022/09/02 01:23:38;;;;;;;;;4.00;4.00;;;;;22.12;42.92;100391.59;5068864;27;45469;-74
2022/09/02 01:26:06;;;;;;;;;9.00;6.50;;;;;22.13;42.98;100393.31;5069648;28;45541;-74
2022/09/02 01:28:32;;;;;;;;;9.00;6.50;;;;;22.12;43.07;100400.53;5071820;28;47005;-74
2022/09/02 01:30:59;;;;;;;;;3.75;3.50;;;;;22.13;43.27;100393.31;5073806;28;45402;-74
2022/09/02 01:33:24;;;;;;;;;5.00;2.00;;;;;22.10;42.99;100389.00;5072816;27;45421;-75
2022/09/02 01:35:50;;;;;;;;;3.50;3.00;;;;;22.11;43.54;100393.44;5072420;28;45425;-74
2022/09/02 01:38:16;;;;;;;;;7.50;5.00;;;;;22.13;43.57;100399.56;5073909;27;46163;-74
2022/09/02 01:40:42;;;;;;;;;2.25;2.25;;;;;22.10;43.16;100393.53;5073235;28;45465;-74
2022/09/02 01:43:15;;;;;;;;;2.50;2.50;;;;;22.11;43.38;100396.13;5072368;27;45388;-73
2022/09/02 01:45:43;;;;;;;;;6.00;6.00;;;;;22.08;43.72;100393.66;5073399;28;45422;-74
2022/09/02 01:48:10;;;;;;;;;6.25;5.00;;;;;22.07;43.42;100388.38;5073929;27;45376;-74
2022/09/02 01:50:38;;;;;;;;;5.25;5.25;;;;;22.07;43.50;100389.22;5063382;28;45525;-73
2022/09/02 01:53:04;;;;;;;;;7.00;5.00;;;;;22.05;43.71;100385.78;5072073;28;45434;-74
2022/09/02 01:55:31;;;;;;;;;8.00;8.00;;;;;22.05;43.65;100383.09;5072879;27;45339;-75
2022/09/02 01:57:56;;;;;;;;;4.50;4.50;;;;;22.03;44.06;100378.78;5073897;28;45360;-74
2022/09/02 02:00:23;;;;;;;;;4.50;4.50;;;;;22.03;43.77;100393.13;5071471;28;45423;-74
2022/09/02 02:02:49;;;;;;;;;6.00;5.25;;;;;22.03;44.35;100425.41;5072022;27;45456;-74
2022/09/02 02:05:14;;;;;;;;;5.75;5.25;;;;;22.02;44.19;100452.44;5072814;28;45397;-75
2022/09/02 02:07:41;;;;;;;;;5.75;5.50;;;;;22.01;44.11;100419.25;5070515;28;46785;-75
2022/09/02 02:10:09;;;;;;;;;5.75;5.75;;;;;22.02;43.72;100434.44;5072115;28;45536;-75
2022/09/02 02:12:36;;;;;;;;;6.25;6.25;;;;;22.02;44.05;100450.59;5071697;28;45570;-75
2022/09/02 02:15:05;;;;;;;;;5.00;5.00;;;;;22.02;43.66;100399.47;5073647;28;45642;-75
2022/09/02 02:17:30;;;;;;;;;7.00;7.00;;;;;22.02;43.93;100407.53;5072295;28;46583;-75
2022/09/02 02:19:55;;;;;;;;;5.50;4.50;;;;;22.04;43.95;100448.63;5072405;28;45376;-75
2022/09/02 02:22:21;;;;;;;;;6.00;5.00;;;;;22.02;44.09;100412.06;5072243;27;45503;-75
2022/09/02 02:24:47;;;;;;;;;7.50;6.25;;;;;22.02;43.86;100426.38;5072896;27;45376;-75
2022/09/02 02:27:12;;;;;;;;;6.00;6.00;;;;;22.02;44.01;100434.44;5072284;28;45402;-75
2022/09/02 02:29:38;;;;;;;;;3.50;2.00;;;;;22.01;43.76;100427.34;5072845;28;45485;-75
2022/09/02 02:32:04;;;;;;;;;7.00;6.00;;;;;22.00;43.52;100426.47;5059799;28;45443;-74
2022/09/02 02:34:29;;;;;;;;;6.25;5.00;;;;;22.01;43.87;100430.03;5071236;28;46464;-77
2022/09/02 02:36:55;;;;;;;;;5.00;2.75;;;;;21.98;44.02;100428.41;5071011;28;47870;-75
2022/09/02 02:39:20;;;;;;;;;6.75;6.75;;;;;21.99;43.54;100413.13;5073193;28;45372;-75
2022/09/02 02:41:46;;;;;;;;;3.00;3.00;;;;;21.97;44.00;100420.44;5071456;27;45432;-75
2022/09/02 02:44:12;;;;;;;;;3.50;3.50;;;;;21.98;43.80;100422.16;5072718;28;45344;-75
2022/09/02 02:46:37;;;;;;;;;0.50;0.50;;;;;21.93;43.97;100413.56;5070756;27;45473;-75
2022/09/02 02:49:04;;;;;;;;;3.50;3.50;;;;;21.96;43.78;100418.72;5072324;28;45374;-74
2022/09/02 02:51:30;;;;;;;;;8.50;6.75;;;;;21.94;44.00;100420.66;5071169;28;45528;-75
2022/09/02 02:53:55;;;;;;;;;5.00;5.00;;;;;21.95;43.93;100414.31;5072735;28;45377;-76
2022/09/02 02:56:21;;;;;;;;;3.50;3.50;;;;;21.92;44.06;100410.00;5071614;27;46513;-76
2022/09/02 02:58:47;;;;;;;;;6.50;6.25;;;;;21.90;44.10;100397.66;5072505;28;46022;-75
2022/09/02 03:01:12;;;;;;;;;4.25;4.25;;;;;21.93;43.80;100402.81;5071590;28;45564;-75
2022/09/02 03:03:37;;;;;;;;;8.00;6.50;;;;;21.87;44.08;100396.03;5071979;28;45437;-75
2022/09/02 03:06:03;;;;;;;;;5.50;5.50;;;;;21.90;44.20;100392.28;5072575;27;45497;-75
2022/09/02 03:08:29;;;;;;;;;5.75;5.00;;;;;21.87;44.17;100390.66;5072437;27;45463;-75
2022/09/02 03:10:55;;;;;;;;;8.00;6.00;;;;;21.89;44.20;100395.91;5069416;27;45413;-75
2022/09/02 03:13:22;;;;;;;;;7.50;5.75;;;;;21.85;44.17;100389.03;5072452;28;45403;-74
2022/09/02 03:15:48;;;;;;;;;7.00;7.00;;;;;21.86;44.69;100393.44;5071289;28;45654;-76
2022/09/02 03:18:13;;;;;;;;;9.00;9.00;;;;;21.85;45.25;100386.34;5071941;27;45362;-75
2022/09/02 03:20:40;;;;;;;;;14.75;11.25;;;;;21.81;45.73;100383.00;5074565;28;45361;-75
2022/09/02 03:23:06;;;;;;;;;15.25;14.00;;;;;21.73;46.19;100391.63;5075392;28;45370;-75
2022/09/02 03:25:33;;;;;;;;;15.00;14.00;;;;;21.72;46.30;100389.03;5075198;28;45567;-76
2022/09/02 03:28:00;;;;;;;;;14.00;14.00;;;;;21.68;46.27;100393.75;5074456;27;45541;-76
2022/09/02 03:30:28;;;;;;;;;6.25;5.25;;;;;21.64;46.90;100386.88;5075122;28;45413;-75
2022/09/02 03:32:58;;;;;;;;;17.75;17.75;;;;;21.57;47.20;100385.56;5074767;28;45405;-75
2022/09/02 03:35:25;;;;;;;;;19.00;17.75;;;;;21.53;47.38;100389.44;5074347;28;46051;-75
2022/09/02 03:37:51;;;;;;;;;14.50;13.00;;;;;21.46;47.79;100373.69;5074633;27;45401;-76
2022/09/02 03:40:21;;;;;;;;;17.50;16.00;;;;;21.43;47.85;100373.06;5074503;28;45577;-75
2022/09/02 03:42:47;;;;;;;;;20.50;13.00;;;;;21.39;47.89;100372.41;5074556;28;45626;-75
2022/09/02 03:45:16;;;;;;;;;17.50;15.75;;;;;21.34;47.80;100365.63;5073842;27;45429;-75
2022/09/02 03:47:49;;;;;;;;;17.25;13.75;;;;;21.35;48.07;100365.53;5074154;28;45509;-75
2022/09/02 03:50:24;;;;;;;;;17.25;14.25;;;;;21.26;47.85;100358.94;5075642;28;45512;-74
2022/09/02 03:52:49;;;;;;;;;16.75;14.75;;;;;21.24;48.25;100365.38;5055090;28;45572;-75
2022/09/02 03:55:17;;;;;;;;;16.50;13.50;;;;;21.18;48.65;100358.63;5069155;28;45440;-75
2022/09/02 03:57:42;;;;;;;;;14.50;10.25;;;;;21.08;49.08;100347.63;5075534;28;45278;-74
2022/09/02 04:00:14;;;;;;;;;5.00;4.00;;;;;21.03;49.43;100363.19;5073116;27;45339;-75
2022/09/02 04:02:40;;;;;;;;;11.00;11.00;;;;;21.00;49.52;100355.34;5074196;28;45443;-75
2022/09/02 04:05:06;;;;;;;;;12.75;10.75;;;;;20.99;49.38;100353.59;5073500;28;47600;-75
2022/09/02 04:07:32;;;;;;;;;9.00;8.25;;;;;21.03;49.48;100360.50;5074215;28;45891;-76
2022/09/02 04:09:57;;;;;;;;;16.75;13.25;;;;;20.97;49.66;100363.59;5074824;28;45465;-75
2022/09/02 04:12:22;;;;;;;;;14.50;12.50;;;;;20.97;49.76;100366.28;5070297;28;45361;-75
2022/09/02 04:14:48;;;;;;;;;16.50;14.25;;;;;20.98;49.96;100370.69;5072982;28;48167;-74
2022/09/02 04:17:13;;;;;;;;;10.00;10.00;;;;;21.00;50.10;100368.78;5075217;28;45510;-76
2022/09/02 04:19:39;;;;;;;;;12.00;11.75;;;;;20.99;50.23;100367.03;5073709;28;45649;-75
2022/09/02 04:22:06;;;;;;;;;15.50;13.75;;;;;20.99;50.63;100358.97;5074968;28;45530;-75
2022/09/02 04:24:32;;;;;;;;;11.50;10.50;;;;;20.95;51.13;100354.78;5074421;27;46404;-76
2022/09/02 04:26:57;;;;;;;;;10.50;10.50;;;;;20.98;51.23;100356.41;5074704;27;45374;-74
2022/09/02 04:29:23;;;;;;;;;13.50;13.50;;;;;20.95;51.78;100354.78;5074314;28;45568;-75
2022/09/02 04:31:48;;;;;;;;;13.00;9.25;;;;;20.93;51.95;100356.72;5074469;27;45603;-76
2022/09/02 04:34:14;;;;;;;;;10.00;10.00;;;;;20.92;52.13;100346.91;5073449;27;45364;-75
2022/09/02 04:36:39;;;;;;;;;10.00;9.00;;;;;20.90;52.52;100355.06;5075519;28;45364;-76
2022/09/02 04:39:07;;;;;;;;;14.00;10.75;;;;;20.88;53.13;100348.13;5076088;28;45471;-75
2022/09/02 04:41:34;;;;;;;;;12.50;12.50;;;;;20.83;54.46;100363.66;5074390;28;45492;-75
2022/09/02 04:44:00;;;;;;;;;8.50;8.50;;;;;20.74;54.63;100363.31;5072350;27;46692;-74
2022/09/02 04:46:27;;;;;;;;;11.00;10.00;;;;;20.75;54.81;100383.81;5074183;27;45715;-75
2022/09/02 04:48:53;;;;;;;;;7.50;6.00;;;;;20.69;55.12;100378.84;5074741;28;45513;-74
2022/09/02 04:51:20;;;;;;;;;6.00;4.50;;;;;20.73;58.57;100376.84;5072460;28;45445;-74
2022/09/02 04:53:49;;;;;;;;;11.00;9.25;;;;;20.54;59.20;100361.03;5073777;28;45533;-74
2022/09/02 04:56:20;;;;;;;;;8.25;8.25;;;;;20.50;59.48;100356.84;5073980;28;45456;-75
2022/09/02 04:58:46;;;;;;;;;8.25;8.25;;;;;20.39;59.91;100354.81;5059070;28;45456;-75
2022/09/02 05:01:19;;;;;;;;;10.75;8.50;;;;;20.31;59.71;100347.25;5073142;28;45366;-74
2022/09/02 05:03:46;;;;;;;;;6.75;5.50;;;;;20.26;60.26;100338.66;5074081;28;46020;-74
2022/09/02 05:06:15;;;;;;;;;11.50;8.25;;;;;20.19;61.14;100338.22;5072518;27;45464;-75
2022/09/02 05:08:41;;;;;;;;;7.75;7.75;;;;;20.17;61.09;100336.56;5074117;27;45400;-75
2022/09/02 05:11:09;;;;;;;;;9.25;8.50;;;;;20.15;61.45;100335.81;5073545;28;45472;-74
2022/09/02 05:13:34;;;;;;;;;10.00;10.00;;;;;20.06;61.86;100346.16;5073161;27;45516;-76
2022/09/02 05:16:00;;;;;;;;;7.00;6.50;;;;;19.96;61.94;100336.97;5074478;27;45447;-75
2022/09/02 05:18:26;;;;;;;;;11.00;9.00;;;;;19.93;62.13;100326.44;5074502;27;45543;-75
2022/09/02 05:20:51;;;;;;;;;10.00;9.25;;;;;19.95;62.21;100337.06;5073364;28;45530;-75
2022/09/02 05:23:17;;;;;;;;;13.00;10.00;;;;;19.88;62.10;100342.81;5074283;27;45424;-75
2022/09/02 05:25:42;;;;;;;;;10.25;10.25;;;;;19.84;62.41;100343.97;5072693;28;45550;-76
2022/09/02 05:28:08;;;;;;;;;8.50;7.00;;;;;19.81;62.30;100349.50;5074204;27;45493;-75
2022/09/02 05:30:37;;;;;;;;;10.00;6.50;;;;;19.76;61.87;100361.47;5074298;27;45471;-75
2022/09/02 05:33:02;;;;;;;;;14.50;9.50;;;;;19.73;62.04;100362.50;5073824;28;46148;-75
2022/09/02 05:35:28;;;;;;;;;10.00;9.00;;;;;19.76;61.82;100359.63;5074168;28;45468;-75
2022/09/02 05:37:53;;;;;;;;;14.50;11.75;;;;;19.73;61.71;100351.78;5072574;28;45516;-75
2022/09/02 05:40:20;;;;;;;;;12.50;9.50;;;;;19.80;61.61;100363.00;5070139;28;45524;-75
2022/09/02 05:42:45;;;;;;;;;8.00;8.00;;;;;19.76;60.26;100356.94;5060705;28;48003;-75
2022/09/02 05:45:11;;;;;;;;;9.75;9.75;;;;;19.78;59.36;100360.41;5069440;28;45522;-75
2022/09/02 05:47:36;;;;;;;;;8.75;5.75;;;;;19.71;59.38;100349.19;5064625;28;45585;-76
2022/09/02 05:50:02;;;;;;;;;8.50;8.50;;;;;19.72;59.38;100350.03;5063064;28;45581;-76
2022/09/02 05:52:28;;;;;;;;;9.75;9.75;;;;;19.74;59.12;100349.94;5067876;28;46421;-76
2022/09/02 05:54:54;;;;;;;;;9.00;5.25;;;;;19.66;58.66;100345.94;5065295;28;45492;-75
2022/09/02 05:57:20;;;;;;;;;9.50;9.50;;;;;19.53;58.97;100334.25;5072595;27;45432;-76
2022/09/02 05:59:47;;;;;;;;;5.00;5.00;;;;;19.70;58.92;100344.78;5067059;28;45619;-76
2022/09/02 06:02:15;;;;;;;;;8.25;7.50;;;;;19.73;58.63;100353.59;5066049;27;45904;-75
2022/09/02 06:04:45;;;;;;;;;8.50;8.50;;;;;19.64;58.25;100355.88;5074207;28;45540;-77
2022/09/02 06:07:11;;;;;;;;;16.50;14.00;;;;;19.59;58.91;100366.03;5073121;28;45373;-74
2022/09/02 06:09:37;;;;;;;;;8.50;7.50;;;;;19.51;58.80;100369.19;5074197;28;45618;-74
2022/09/02 06:12:02;;;;;;;;;14.75;14.75;;;;;19.49;59.28;100359.50;5071174;28;45539;-76
2022/09/02 06:14:28;;;;;;;;;9.75;9.75;;;;;19.52;59.30;100362.00;5071769;28;45464;-76
2022/09/02 06:16:55;;;;;;;;;10.00;8.75;;;;;19.55;59.40;100358.28;5055975;28;45571;-75
2022/09/02 06:19:24;;;;;;;;;12.75;12.00;;;;;19.55;59.30;100353.78;5053718;28;45581;-76
2022/09/02 06:21:50;;;;;;;;;8.00;8.00;;;;;19.57;59.03;100359.91;5052747;28;45501;-75
2022/09/02 06:24:15;;;;;;;;;12.25;9.50;;;;;19.57;58.57;100357.22;5061875;28;45335;-74
2022/09/02 06:26:41;;;;;;;;;8.75;8.25;;;;;19.50;58.85;100370.13;5071907;28;45512;-76
2022/09/02 06:29:08;;;;;;;;;10.75;8.50;;;;;19.32;59.22;100358.69;5073278;27;45459;-75
2022/09/02 06:31:34;;;;;;;;;13.50;10.75;;;;;19.32;59.15;100353.34;5074756;28;45338;-74
2022/09/02 06:33:59;;;;;;;;;12.75;9.25;;;;;19.26;59.25;100353.72;5074402;27;45436;-74
2022/09/02 06:36:27;;;;;;;;;13.00;10.00;;;;;19.25;59.57;100356.47;5072697;27;45830;-75
2022/09/02 06:38:54;;;;;;;;;10.75;10.75;;;;;19.33;59.27;100355.06;5074143;27;45335;-75
2022/09/02 06:41:27;;;;;;;;;13.25;10.00;;;;;19.39;59.20;100350.28;5072597;28;45536;-75
2022/09/02 06:43:56;;;;;;;;;9.50;9.50;;;;;19.45;58.94;100355.28;5074254;27;45355;-75
2022/09/02 06:46:25;;;;;;;;;7.50;7.50;;;;;19.47;58.83;100356.91;5072658;27;45545;-75
2022/09/02 06:48:51;;;;;;;;;10.00;10.00;;;;;19.59;58.69;100346.41;5072494;28;45373;-76
2022/09/02 06:51:23;;;;;;;;;10.25;10.25;;;;;19.80;58.40;100346.91;5073220;28;45588;-76
2022/09/02 06:53:49;;;;;;;;;12.50;12.50;;;;;20.37;57.06;100338.81;5075235;28;45496;-76
2022/09/02 06:56:14;;;;;;;;;8.25;8.25;;;;;21.36;53.85;100345.72;5070035;28;45489;-78
2022/09/02 06:58:39;;;;;;;;;9.50;9.50;;;;;21.89;51.94;100339.44;5076364;28;45418;-75
2022/09/02 07:01:06;;;;;;;;;13.00;10.25;;;;;22.20;50.91;100343.47;5073878;28;46857;-76
2022/09/02 07:06:16;;;;;;;;;6.25;6.25;;;;;22.02;50.46;100340.28;5076337;28;45578;-75
2022/09/02 07:08:43;;;;;;;;;9.25;9.00;;;;;22.12;50.51;100349.41;5076568;27;45451;-75
2022/09/02 07:11:22;;;;;;;;;9.75;9.75;;;;;21.83;50.21;100338.03;5077020;28;45573;-76
2022/09/02 07:13:49;;;;;;;;;7.50;7.50;;;;;21.76;51.31;100339.44;5075980;28;45453;-76
2022/09/02 07:16:16;;;;;;;;;10.00;9.00;;;;;21.61;50.85;100338.69;5076329;28;45462;-76
2022/09/02 07:18:42;;;;;;;;;11.50;9.75;;;;;21.54;51.21;100342.78;5077190;28;45420;-76
2022/09/02 07:21:09;;;;;;;;;12.00;8.75;;;;;21.41;51.77;100327.47;5077207;28;46402;-77
2022/09/02 07:23:35;;;;;;;;;6.75;6.00;;;;;21.42;51.58;100329.19;5076498;27;45344;-76
2022/09/02 07:26:00;;;;;;;;;7.25;7.25;;;;;21.38;51.26;100322.31;5076118;28;45500;-76
2022/09/02 07:28:26;;;;;;;;;7.00;7.00;;;;;21.28;51.65;100318.53;5075517;27;45411;-76
2022/09/02 07:30:54;;;;;;;;;5.75;5.75;;;;;21.31;51.34;100312.94;5076160;27;45371;-76
2022/09/02 07:33:20;;;;;;;;;8.75;6.25;;;;;21.31;51.20;100315.63;5077512;28;45436;-77
2022/09/02 07:35:46;;;;;;;;;8.75;6.00;;;;;21.37;50.97;100339.38;5075854;27;45395;-77
2022/09/02 07:38:11;;;;;;;;;11.00;9.25;;;;;21.43;51.00;100328.22;5077191;28;45546;-76
2022/09/02 07:40:39;;;;;;;;;8.50;7.50;;;;;21.56;50.87;100322.88;5076359;27;46261;-76
2022/09/02 07:43:07;;;;;;;;;5.50;5.50;;;;;21.59;50.46;100324.47;5075856;27;45544;-77
2022/09/02 07:45:34;;;;;;;;;8.75;6.00;;;;;21.52;50.59;100334.81;5074218;27;45916;-76
2022/09/02 07:48:00;;;;;;;;;10.00;8.25;;;;;21.58;50.62;100331.69;5070037;28;45858;-76
2022/09/02 07:50:26;;;;;;;;;9.00;6.00;;;;;21.65;49.86;100326.72;5070715;28;46059;-76
2022/09/02 07:52:57;;;;;;;;;10.00;7.25;;;;;21.70;49.59;100332.66;5066657;27;45495;-76
2022/09/02 07:55:24;;;;;;;;;7.25;7.25;;;;;21.70;49.16;100343.44;5071807;28;45471;-76
2022/09/02 07:57:51;;;;;;;;;5.75;5.75;;;;;21.48;49.24;100334.16;5072049;28;45540;-76
2022/09/02 08:00:18;;;;;;;;;9.50;9.00;;;;;21.44;49.58;100338.00;5071047;28;45392;-77
2022/09/02 08:02:45;;;;;;;;;6.50;6.50;;;;;21.55;49.13;100356.09;5073501;27;45487;-77
2022/09/02 08:05:11;;;;;;;;;6.00;5.00;;;;;21.45;48.24;100352.28;5074557;28;45322;-77
2022/09/02 08:07:36;;;;;;;;;6.00;6.00;;;;;21.31;48.92;100358.63;5073464;28;45505;-77
2022/09/02 08:10:11;;;;;;;;;5.00;5.00;;;;;21.27;48.74;100370.53;5074643;28;45622;-77
2022/09/02 08:12:39;;;;;;;;;8.25;6.00;;;;;21.19;48.93;100365.69;5073430;28;45742;-77
2022/09/02 08:15:06;;;;;;;;;9.00;6.50;;;;;21.11;49.00;100358.16;5075109;28;45364;-77
2022/09/02 08:17:31;;;;;;;;;6.00;6.00;;;;;21.17;48.95;100364.09;5073316;27;45474;-77
2022/09/02 08:19:57;;;;;;;;;7.50;6.00;;;;;21.12;48.88;100370.63;5075804;28;45536;-77
2022/09/02 08:22:23;;;;;;;;;6.00;6.00;;;;;21.08;48.74;100379.00;5070826;28;45447;-77
2022/09/02 08:24:48;;;;;;;;;5.50;5.50;;;;;21.09;49.41;100381.59;5075049;28;45310;-76
2022/09/02 08:27:13;;;;;;;;;9.50;7.50;;;;;21.07;49.65;100377.28;5070249;28;45605;-77
2022/09/02 08:29:39;;;;;;;;;8.25;6.75;;;;;21.10;49.83;100396.75;5075618;27;46264;-76
2022/09/02 08:32:05;;;;;;;;;7.50;5.50;;;;;21.14;50.15;100409.97;5075901;28;45384;-75
2022/09/02 08:34:30;;;;;;;;;8.00;6.75;;;;;21.11;50.86;100425.31;5090899;27;45426;-76
2022/09/02 08:36:56;;;;;;;;;8.25;8.25;;;;;21.05;50.66;100433.78;5074141;28;45572;-76
2022/09/02 08:39:22;;;;;;;;;10.25;8.00;;;;;21.00;52.25;100430.56;5074959;28;46282;-74
2022/09/02 08:42:08;;;;;;;;;9.50;9.00;;;;;20.95;53.29;100421.91;5074372;28;45509;-75
2022/09/02 08:44:37;;;;;;;;;9.25;9.00;;;;;20.96;53.79;100429.03;5067563;27;45449;-77
2022/09/02 08:47:05;;;;;;;;;7.25;7.25;;;;;20.90;54.54;100435.66;5073453;28;45361;-75
2022/09/02 08:49:40;;;;;;;;;11.00;10.00;;;;;20.93;54.42;100437.28;5073696;28;45413;-76
2022/09/02 08:52:06;;;;;;;;;10.00;9.75;;;;;20.90;55.34;100432.13;5074624;28;45463;-77
2022/09/02 08:54:56;;;;;;;;;9.50;9.00;;;;;20.92;55.45;100430.19;5072409;28;45612;-77
2022/09/02 08:57:25;;;;;;;;;11.00;11.00;;;;;20.93;55.64;100429.22;5072594;28;45548;-76
2022/09/02 08:59:52;;;;;;;;;8.75;8.00;;;;;20.98;55.28;100424.41;5074062;27;46113;-76
2022/09/02 09:02:36;;;;;;;;;11.00;9.00;;;;;21.04;55.11;100423.16;5073461;28;45444;-78
2022/09/02 09:05:22;;;;;;;;;12.25;10.00;;;;;21.12;55.81;100428.88;5073631;28;45664;-76
2022/09/02 09:08:06;;;;;;;;;8.50;6.00;;;;;21.24;54.74;100424.50;5066487;28;45400;-77
2022/09/02 09:10:37;;;;;;;;;13.00;11.00;;;;;21.39;54.74;100415.44;5073653;28;46344;-76
2022/09/02 09:13:25;;;;;;;;;11.50;11.00;;;;;21.59;54.65;100410.53;5074314;27;45663;-73
2022/09/02 09:15:53;;;;;;;;;8.50;8.50;;;;;21.73;52.97;100397.00;5068772;28;45398;-73
2022/09/02 09:18:36;;;;;;;;;15.25;12.00;;;;;21.89;53.28;100404.00;5072059;28;45469;-75
2022/09/02 09:21:03;;;;;;;;;9.00;8.75;;;;;22.06;53.14;100411.75;5068035;28;46528;-75
2022/09/02 09:23:32;;;;;;;;;12.25;11.00;;;;;22.15;52.21;100402.13;5073006;28;45436;-76
2022/09/02 09:26:08;;;;;;;;;15.75;11.50;;;;;22.37;52.28;100406.88;5069992;28;45498;-75
2022/09/02 09:28:48;;;;;;;;;12.75;9.75;;;;;22.61;50.41;100406.06;5069164;28;45252;-75
2022/09/02 09:31:17;;;;;;;;;11.50;9.75;;;;;22.85;50.76;100406.97;5070851;28;46023;-78
2022/09/02 09:33:58;;;;;;;;;10.50;9.25;;;;;23.07;49.31;100391.88;5069399;28;45342;-75
2022/09/02 09:36:42;;;;;;;;;11.50;10.25;;;;;23.34;48.63;100396.19;5067555;28;45592;-75
2022/09/02 09:39:37;;;;;;;;;10.75;10.25;;;;;23.65;48.60;100394.66;5071316;28;45454;-75
2022/09/02 09:42:12;;;;;;;;;12.50;9.50;;;;;23.84;47.31;100386.00;5058037;28;45607;-75
2022/09/02 09:44:39;;;;;;;;;9.50;9.50;;;;;23.99;46.38;100378.56;5073376;28;45524;-76
2022/09/02 09:47:18;;;;;;;;;11.00;9.00;;;;;24.03;46.23;100371.06;5066349;28;45514;-76
2022/09/02 09:50:13;;;;;;;;;11.50;10.50;;;;;24.16;45.49;100379.91;5066621;28;45353;-76
2022/09/02 09:52:39;;;;;;;;;13.75;11.25;;;;;24.27;46.09;100379.88;5059196;27;45594;-76
2022/09/02 09:55:21;;;;;;;;;10.75;10.25;;;;;24.40;45.55;100378.88;5070980;28;45284;-76
2022/09/02 09:57:48;;;;;;;;;17.00;13.75;;;;;24.47;46.18;100363.91;5073544;28;45445;-76
2022/09/02 10:00:32;;;;;;;;;31.25;31.25;;;;;24.54;45.67;100375.94;5069833;28;45741;-80
2022/09/02 10:03:25;;;;;;;;;22.25;19.00;;;;;24.69;45.29;100373.84;5070215;28;46262;-78
2022/09/02 10:05:58;;;;;;;;;12.25;9.00;;;;;24.72;45.93;100373.59;5064441;27;45661;-77
2022/09/02 10:08:26;;;;;;;;;13.25;11.00;;;;;24.78;45.01;100372.22;5071703;28;45493;-78
2022/09/02 10:11:00;;;;;;;;;10.00;9.75;;;;;24.79;44.95;100368.53;5072996;28;45420;-79
2022/09/02 10:13:32;;;;;;;;;9.00;9.00;;;;;24.77;45.32;100365.13;5073146;28;45554;-80
2022/09/02 10:16:00;;;;;;;;;12.25;9.00;;;;;24.80;45.38;100364.84;5073363;28;45482;-77
2022/09/02 10:18:52;;;;;;;;;11.75;10.50;;;;;24.84;46.70;100358.22;5072322;28;45502;-77
2022/09/02 10:21:43;;;;;;;;;11.50;10.50;;;;;24.88;45.12;100362.34;5068685;28;45425;-76
2022/09/02 10:24:43;;;;;;;;;14.00;12.25;;;;;24.83;45.17;100351.94;5069816;28;46206;-77
2022/09/02 10:27:15;;;;;;;;;12.75;12.50;;;;;24.82;45.04;100358.34;5067397;28;45512;-75
2022/09/02 10:29:53;;;;;;;;;14.50;14.50;;;;;24.90;46.05;100355.00;5062810;28;45636;-75
2022/09/02 10:32:29;;;;;;;;;14.00;12.50;;;;;24.92;45.90;100353.00;5064734;28;45429;-76
2022/09/02 10:34:54;;;;;;;;;10.75;9.75;;;;;24.87;45.26;100349.84;5069054;28;45377;-76
2022/09/02 10:37:23;;;;;;;;;12.25;11.00;;;;;24.86;45.31;100360.78;5074522;27;45643;-75
2022/09/02 10:40:08;;;;;;;;;14.75;10.25;;;;;24.82;45.47;100341.25;5073250;28;45536;-76
2022/09/02 10:43:03;;;;;;;;;13.00;13.00;;;;;24.70;45.25;100362.03;5071815;28;45412;-75
2022/09/02 10:45:43;;;;;;;;;10.75;10.75;;;;;24.57;46.64;100348.66;5068949;28;45625;-76
2022/09/02 10:48:57;;;;;;;;;12.25;10.75;;;;;24.57;47.23;100354.06;5081928;27;45367;-75
2022/09/02 10:51:36;;;;;;;;;14.00;14.00;;;;;24.51;47.85;100357.28;5009749;28;45690;-76
2022/09/02 10:54:22;;;;;;;;;11.25;11.00;;;;;24.45;47.25;100344.28;5010426;28;45439;-74
2022/09/02 10:57:17;;;;;;;;;13.00;12.50;;;;;24.32;46.58;100339.00;5010749;28;45468;-77
2022/09/02 10:59:54;;;;;;;;;14.75;13.50;;;;;24.17;47.32;100324.91;5010111;28;45488;-74
2022/09/02 11:02:27;;;;;;;;;11.25;11.00;;;;;24.27;47.62;100331.28;5008640;28;45455;-76
2022/09/02 11:05:01;;;;;;;;;12.75;12.75;;;;;24.30;47.41;100343.69;5009123;28;45573;-76
2022/09/02 11:07:36;;;;;;;;;12.25;11.25;;;;;24.19;46.46;100338.31;5009349;28;46224;-75
2022/09/02 11:10:13;;;;;;;;;10.25;10.25;;;;;23.98;46.96;100332.81;5011757;28;45498;-86
2022/09/02 11:12:45;;;;;;;;;16.50;14.25;;;;;23.90;48.08;100336.97;4997314;28;45432;-74
2022/09/02 11:15:31;;;;;;;;;19.00;14.25;;;;;23.74;47.48;100328.34;5011114;28;45552;-76
2022/09/02 11:18:12;;;;;;;;;12.00;11.00;;;;;23.64;50.54;100328.22;5000703;28;45470;-76
2022/09/02 11:20:57;;;;;;;;;12.25;11.50;;;;;23.60;49.60;100322.19;5009742;28;45585;-75
2022/09/02 11:23:39;;;;;;;;;12.00;10.75;;;;;23.51;49.46;100317.53;5066093;28;45623;-76
2022/09/02 11:26:22;;;;;;;;;17.50;17.50;;;;;23.38;49.33;100314.94;5071233;28;45549;-76
2022/09/02 11:29:08;;;;;;;;;14.00;14.00;;;;;23.36;50.65;100310.66;5071836;28;45418;-76
2022/09/02 11:31:41;;;;;;;;;12.00;11.00;;;;;23.26;50.47;100302.44;5071772;28;45368;-76
2022/09/02 11:34:09;;;;;;;;;16.25;11.25;;;;;23.26;51.03;100312.34;5071591;28;45386;-76